createdAt,value
2023-05-17T00:03:13.999Z,5.21
2023-05-17T00:07:16.138Z,5.06
2023-05-17T00:11:18.207Z,5.01
2023-05-17T00:15:20.251Z,4.99
2023-05-17T00:19:22.468Z,4.97
2023-05-17T00:23:24.889Z,4.95
2023-05-17T00:27:26.948Z,4.89
2023-05-17T00:31:29.086Z,4.93
2023-05-17T00:35:31.369Z,5.13
2023-05-17T00:39:33.549Z,5.30
2023-05-17T00:43:35.749Z,5.42
2023-05-17T00:47:37.950Z,5.60
2023-05-17T00:51:40.851Z,5.80
2023-05-17T00:55:46.249Z,5.94
2023-05-17T00:59:49.433Z,5.96
2023-05-17T01:03:52.083Z,5.94
2023-05-17T01:07:54.357Z,5.88
2023-05-17T01:11:56.453Z,5.86
2023-05-17T01:16:10.684Z,5.83
2023-05-17T01:20:35.468Z,5.79
2023-05-17T01:24:52.080Z,5.74
2023-05-17T01:28:56.027Z,6.09
2023-05-17T01:32:59.584Z,6.07
2023-05-17T01:37:01.745Z,5.87
2023-05-17T01:41:16.450Z,5.68
2023-05-17T01:45:33.766Z,5.53
2023-05-17T01:49:40.472Z,5.43
2023-05-17T01:53:57.105Z,5.35
2023-05-17T01:58:01.726Z,5.29
2023-05-17T02:02:08.929Z,5.25
2023-05-17T02:06:11.782Z,5.22
2023-05-17T02:10:16.139Z,5.18
2023-05-17T02:14:18.195Z,5.08
2023-05-17T02:18:21.933Z,5.03
2023-05-17T02:22:24.160Z,4.95
2023-05-17T02:26:26.271Z,4.90
2023-05-17T02:30:28.358Z,4.85
2023-05-17T02:34:30.423Z,4.80
2023-05-17T02:38:32.495Z,4.75
2023-05-17T02:42:34.560Z,4.66
2023-05-17T02:46:38.436Z,4.59
2023-05-17T02:50:40.660Z,4.56
2023-05-17T02:54:45.518Z,4.50
2023-05-17T02:58:48.217Z,4.44
2023-05-17T03:02:50.586Z,4.39
2023-05-17T03:06:52.960Z,4.34
2023-05-17T03:10:55.250Z,4.29
2023-05-17T03:14:58.509Z,4.24
2023-05-17T03:19:01.049Z,4.27
2023-05-17T03:23:04.156Z,4.27
2023-05-17T03:27:06.486Z,4.25
2023-05-17T03:31:08.974Z,4.28
2023-05-17T03:35:11.324Z,4.30
2023-05-17T03:39:15.733Z,4.22
2023-05-17T03:43:18.628Z,4.23
2023-05-17T03:47:24.734Z,4.30
2023-05-17T03:51:26.950Z,4.33
2023-05-17T03:55:29.192Z,4.38
2023-05-17T03:59:31.387Z,4.37
2023-05-17T04:03:33.723Z,4.32
2023-05-17T04:07:35.898Z,4.43
2023-05-17T04:11:38.254Z,4.47
2023-05-17T04:15:40.391Z,4.49
2023-05-17T04:19:43.537Z,5.83
2023-05-17T04:23:45.799Z,7.49
2023-05-17T04:27:48.053Z,7.98
2023-05-17T04:31:50.277Z,9.30
2023-05-17T04:35:55.756Z,9.93
2023-05-17T04:39:59.191Z,10.96
2023-05-17T04:44:02.798Z,11.65
2023-05-17T04:48:10.376Z,12.49
2023-05-17T04:52:12.443Z,12.40
2023-05-17T04:56:14.699Z,13.53
2023-05-17T05:00:17.574Z,14.48
2023-05-17T05:04:25.586Z,14.50
2023-05-17T05:08:28.217Z,15.34
2023-05-17T05:12:31.349Z,16.68
2023-05-17T05:16:34.271Z,17.86
2023-05-17T05:20:36.636Z,18.84
2023-05-17T05:24:41.124Z,19.25
2023-05-17T05:28:43.345Z,19.85
2023-05-17T05:32:46.475Z,20.11
2023-05-17T05:36:48.634Z,20.58
2023-05-17T05:40:51.067Z,20.80
2023-05-17T05:44:53.160Z,17.90
2023-05-17T05:48:56.985Z,15.26
2023-05-17T05:53:10.919Z,13.16
2023-05-17T05:57:23.521Z,12.76
2023-05-17T06:01:25.780Z,13.86
2023-05-17T06:05:27.918Z,13.81
2023-05-17T06:09:30.005Z,13.12
2023-05-17T06:13:32.039Z,12.36
2023-05-17T06:17:34.148Z,12.11
2023-05-17T06:21:36.226Z,11.75
2023-05-17T06:25:38.421Z,11.47
2023-05-17T06:29:40.543Z,12.19
2023-05-17T06:33:42.654Z,13.76
2023-05-17T06:37:44.912Z,13.39
2023-05-17T06:41:46.960Z,14.74
2023-05-17T06:45:52.840Z,14.26
2023-05-17T06:49:54.889Z,18.56
2023-05-17T06:53:57.070Z,18.76
2023-05-17T06:58:00.201Z,17.17
2023-05-17T07:02:02.876Z,17.04
2023-05-17T07:06:05.277Z,16.99
2023-05-17T07:10:07.785Z,14.67
2023-05-17T07:14:09.866Z,13.82
2023-05-17T07:18:12.049Z,13.74
2023-05-17T07:22:14.231Z,13.72
2023-05-17T07:26:19.578Z,13.21
2023-05-17T07:30:21.621Z,12.83
2023-05-17T07:34:24.965Z,12.54
2023-05-17T07:38:27.039Z,12.29
2023-05-17T07:42:29.066Z,12.20
2023-05-17T07:46:31.251Z,12.48
2023-05-17T07:50:33.430Z,12.09
2023-05-17T07:54:35.516Z,11.72
2023-05-17T07:58:37.551Z,11.55
2023-05-17T08:02:40.940Z,11.76
2023-05-17T08:06:45.569Z,11.94
2023-05-17T08:10:47.890Z,11.92
2023-05-17T08:14:50.026Z,11.88
2023-05-17T08:18:52.403Z,11.93
2023-05-17T08:22:57.957Z,12.07
2023-05-17T08:26:59.991Z,12.21
2023-05-17T08:31:02.041Z,12.19
2023-05-17T08:35:04.863Z,12.34
2023-05-17T08:39:08.443Z,12.44
2023-05-17T08:43:13.013Z,12.63
2023-05-17T08:47:25.870Z,13.15
2023-05-17T08:51:29.025Z,13.34
2023-05-17T08:55:33.170Z,13.14
2023-05-17T08:59:35.899Z,12.77
2023-05-17T09:03:41.066Z,12.54
2023-05-17T09:07:43.645Z,12.60
2023-05-17T09:11:45.754Z,13.20
2023-05-17T09:15:49.153Z,13.80
2023-05-17T09:19:51.861Z,13.70
2023-05-17T09:24:05.363Z,13.56
2023-05-17T09:28:08.935Z,13.40
2023-05-17T09:32:16.690Z,13.40
2023-05-17T09:36:21.038Z,14.01
2023-05-17T09:40:26.317Z,13.96
2023-05-17T09:44:28.394Z,13.57
2023-05-17T09:48:30.809Z,13.58
2023-05-17T09:52:35.663Z,13.71
2023-05-17T09:56:37.843Z,13.66
2023-05-17T10:00:43.077Z,13.83
2023-05-17T10:04:49.432Z,13.88
2023-05-17T10:08:55.948Z,13.78
2023-05-17T10:13:00.499Z,13.90
2023-05-17T10:17:03.348Z,13.60
2023-05-17T10:21:07.749Z,14.06
2023-05-17T10:25:10.428Z,14.38
2023-05-17T10:29:12.975Z,14.29
2023-05-17T10:33:16.270Z,14.31
2023-05-17T10:37:19.829Z,14.27
2023-05-17T10:41:25.343Z,14.65
2023-05-17T10:45:27.959Z,14.29
2023-05-17T10:49:32.304Z,13.70
2023-05-17T10:53:34.417Z,13.12
2023-05-17T11:01:54.380Z,13.27
2023-05-17T11:06:23.643Z,13.54
2023-05-17T11:10:27.920Z,13.68
2023-05-17T11:14:45.245Z,13.80
2023-05-17T11:18:51.484Z,13.65
2023-05-17T11:23:06.820Z,13.63
2023-05-17T11:27:09.050Z,13.96
2023-05-17T11:31:11.406Z,14.20
2023-05-17T11:35:14.510Z,14.20
2023-05-17T11:39:23.639Z,13.58
2023-05-17T11:43:31.115Z,13.52
2023-05-17T11:47:33.669Z,14.05
2023-05-17T11:51:36.085Z,13.89
2023-05-17T11:55:40.181Z,13.69
2023-05-17T11:59:43.189Z,13.32
2023-05-17T12:03:47.371Z,13.53
2023-05-17T12:07:52.779Z,13.61
2023-05-17T12:11:55.548Z,13.56
2023-05-17T12:16:03.557Z,13.72
2023-05-17T12:20:09.856Z,13.98
2023-05-17T12:24:12.404Z,13.63
2023-05-17T12:28:22.186Z,13.27
2023-05-17T12:32:25.531Z,13.52
2023-05-17T12:36:29.366Z,13.92
2023-05-17T12:40:31.971Z,14.23
2023-05-17T12:44:34.106Z,13.86
2023-05-17T12:48:37.904Z,13.48
2023-05-17T12:52:41.128Z,13.29
2023-05-17T12:56:46.403Z,13.12
2023-05-17T13:00:59.361Z,13.23
2023-05-17T13:05:16.049Z,13.48
2023-05-17T13:09:20.670Z,13.50
2023-05-17T13:13:22.756Z,13.85
2023-05-17T13:17:26.224Z,14.21
2023-05-17T13:21:28.364Z,14.12
2023-05-17T13:25:31.564Z,13.79
2023-05-17T13:29:39.505Z,13.83
2023-05-17T13:33:42.813Z,13.92
2023-05-17T13:37:44.896Z,13.95
2023-05-17T13:41:46.969Z,14.01
2023-05-17T13:45:54.331Z,14.25
2023-05-17T13:49:56.360Z,14.04
2023-05-17T13:53:58.404Z,14.07
2023-05-17T13:58:00.453Z,14.22
2023-05-17T14:02:04.136Z,14.14
2023-05-17T14:06:06.777Z,14.29
2023-05-17T14:10:12.132Z,14.59
2023-05-17T14:14:14.203Z,14.53
2023-05-17T14:18:16.427Z,14.33
2023-05-17T14:22:18.557Z,14.12
2023-05-17T14:26:21.615Z,14.01
2023-05-17T14:30:24.170Z,14.21
2023-05-17T14:34:26.301Z,14.34
2023-05-17T14:38:28.392Z,14.35
2023-05-17T14:42:31.298Z,14.23
2023-05-17T14:46:34.315Z,14.19
2023-05-17T14:50:36.458Z,14.16
2023-05-17T14:54:39.925Z,14.19
2023-05-17T14:58:42.282Z,14.23
2023-05-17T15:02:44.466Z,14.24
2023-05-17T15:06:46.535Z,14.27
2023-05-17T15:10:50.661Z,14.22
2023-05-17T15:14:52.779Z,14.23
2023-05-17T15:18:57.295Z,14.13
2023-05-17T15:22:59.822Z,14.15
2023-05-17T15:27:01.927Z,14.05
2023-05-17T15:31:06.469Z,14.05
2023-05-17T15:35:08.864Z,13.88
2023-05-17T15:39:11.072Z,13.88
2023-05-17T15:43:13.212Z,13.76
2023-05-17T15:47:15.264Z,13.84
2023-05-17T15:51:17.379Z,13.79
2023-05-17T15:55:19.509Z,13.89
2023-05-17T15:59:21.550Z,13.69
2023-05-17T16:03:23.629Z,13.71
2023-05-17T16:07:26.476Z,13.87
2023-05-17T16:11:28.760Z,13.81
2023-05-17T16:15:31.214Z,13.76
2023-05-17T16:19:34.300Z,13.69
2023-05-17T16:23:36.639Z,13.65
2023-05-17T16:27:38.805Z,13.57
2023-05-17T16:31:40.949Z,13.42
2023-05-17T16:35:43.538Z,13.38
2023-05-17T16:39:45.825Z,13.42
2023-05-17T16:43:47.888Z,13.36
2023-05-17T16:47:49.994Z,13.18
2023-05-17T16:51:52.580Z,13.00
2023-05-17T16:55:55.246Z,12.93
2023-05-17T16:59:58.119Z,12.95
2023-05-17T17:04:00.408Z,12.95
2023-05-17T17:08:02.600Z,12.87
2023-05-17T17:12:20.063Z,12.74
2023-05-17T17:16:25.420Z,12.69
2023-05-17T17:20:27.719Z,12.61
2023-05-17T17:24:29.906Z,12.53
2023-05-17T17:28:31.931Z,12.41
2023-05-17T17:32:34.182Z,12.29
2023-05-17T17:36:36.289Z,12.12
2023-05-17T17:40:38.359Z,12.03
2023-05-17T17:44:40.437Z,11.99
2023-05-17T17:48:42.533Z,11.88
2023-05-17T17:52:44.618Z,11.82
2023-05-17T17:56:46.653Z,11.72
2023-05-17T18:00:48.695Z,11.64
2023-05-17T18:04:50.954Z,11.55
2023-05-17T18:08:53.058Z,11.43
2023-05-17T18:12:55.100Z,11.26
2023-05-17T18:16:57.454Z,11.19
2023-05-17T18:20:59.708Z,11.07
2023-05-17T18:25:01.740Z,10.97
2023-05-17T18:29:04.071Z,10.82
2023-05-17T18:33:07.329Z,10.67
2023-05-17T18:37:09.413Z,10.55
2023-05-17T18:41:11.436Z,10.43
2023-05-17T18:45:13.523Z,10.31
2023-05-17T18:49:16.808Z,10.15
2023-05-17T18:53:18.952Z,9.98
2023-05-17T18:57:21.020Z,9.84
2023-05-17T19:01:23.236Z,9.68
2023-05-17T19:05:25.377Z,9.53
2023-05-17T19:09:27.418Z,9.39
2023-05-17T19:13:29.816Z,9.24
2023-05-17T19:17:32.081Z,9.36
2023-05-17T19:21:34.618Z,9.27
2023-05-17T19:25:36.718Z,9.09
2023-05-17T19:29:38.767Z,8.92
2023-05-17T19:33:40.856Z,8.77
2023-05-17T19:37:43.062Z,8.63
2023-05-17T19:41:45.096Z,8.56
2023-05-17T19:45:47.160Z,8.54
2023-05-17T19:49:49.266Z,8.47
2023-05-17T19:53:54.026Z,8.37
2023-05-17T19:58:00.898Z,8.26
2023-05-17T20:02:02.977Z,8.13
2023-05-17T20:06:05.112Z,8.03
2023-05-17T20:10:07.323Z,7.91
2023-05-17T20:14:09.821Z,7.79
2023-05-17T20:18:12.851Z,7.68
2023-05-17T20:22:14.937Z,7.44
2023-05-17T20:26:18.755Z,7.28
2023-05-17T20:30:20.827Z,7.12
2023-05-17T20:34:23.022Z,6.97
2023-05-17T20:38:25.157Z,6.91
2023-05-17T20:42:28.148Z,6.92
2023-05-17T20:46:30.770Z,6.84
2023-05-17T20:50:32.946Z,6.76
2023-05-17T20:54:35.091Z,6.60
2023-05-17T20:58:37.175Z,6.47
2023-05-17T21:02:39.361Z,6.49
2023-05-17T21:06:41.967Z,6.46
2023-05-17T21:10:46.436Z,6.40
2023-05-17T21:14:56.494Z,6.32
2023-05-17T21:19:06.593Z,6.27
2023-05-17T21:23:08.645Z,6.27
2023-05-17T21:27:10.695Z,6.27
2023-05-17T21:31:13.169Z,6.19
2023-05-17T21:35:15.534Z,6.10
2023-05-17T21:39:17.645Z,5.96
2023-05-17T21:43:19.667Z,5.94
2023-05-17T21:47:21.714Z,5.95
2023-05-17T21:51:23.795Z,5.93
2023-05-17T21:55:27.042Z,5.88
2023-05-17T21:59:29.204Z,5.86
2023-05-17T22:03:31.446Z,5.82
2023-05-17T22:07:33.843Z,5.71
2023-05-17T22:11:38.327Z,5.67
2023-05-17T22:15:41.459Z,5.62
2023-05-17T22:19:45.127Z,5.54
2023-05-17T22:23:47.251Z,5.54
2023-05-17T22:27:49.485Z,5.54
2023-05-17T22:31:51.734Z,5.57
2023-05-17T22:35:54.105Z,5.57
2023-05-17T22:39:56.362Z,5.42
2023-05-17T22:43:58.402Z,5.30
2023-05-17T22:48:02.793Z,5.14
2023-05-17T22:52:05.923Z,5.07
2023-05-17T22:56:07.926Z,5.01
2023-05-17T23:00:11.250Z,5.04
2023-05-17T23:04:14.259Z,5.05
2023-05-17T23:08:16.490Z,5.06
2023-05-17T23:12:18.607Z,5.01
2023-05-17T23:16:25.883Z,4.94
2023-05-17T23:20:28.049Z,4.87
2023-05-17T23:24:30.239Z,4.86
2023-05-17T23:28:32.303Z,4.83
2023-05-17T23:32:34.806Z,4.82
2023-05-17T23:36:36.933Z,4.77
2023-05-17T23:40:40.248Z,4.78
2023-05-17T23:44:42.935Z,4.77
2023-05-17T23:48:50.194Z,4.67
2023-05-17T23:52:52.145Z,4.69
2023-05-17T23:56:54.111Z,4.68
